Ashmont, Canada
Current Conditions -  °F | °C
As of 11:00 PM on Saturday 25 Oct 2014 (Local Time) from CYOD Reporting Station
Overcast Overcast  
Wind Chill: 31°   Ceiling: 6000
Heat Index: 39°   Visibility: 15mi
Dew Point: 30°   Wind: 14mph
Humidity: 70%   Direction: 60°ENE
Pressure: 29.73"   Gusts: NA
Location:  54.13°N, 111.57°W
Report Text: CYOD 260500Z 06012KT 15SM FEW025 OVC060 04/M01 A2973 RMK SC2SC6OCNL -SHRA SLP088
Loading
Personal Weather Stations






























Interactive Weather Map
Tropical Storm Tracking
New forecast layout! Learn more

10-Day Weather Forecast

Advertisements
Track Severe Weather on mobile